sensor_id;sensor_type;location;lat;lon;timestamp;P1;durP1;ratioP1;P2;durP2;ratioP2
9821;SDS011;4950;46.042;14.472;2023-06-10T00:00:41;8.13;;;4.07;;
9821;SDS011;4950;46.042;14.472;2023-06-10T00:03:09;5.95;;;3.90;;
9821;SDS011;4950;46.042;14.472;2023-06-10T00:05:37;6.32;;;3.47;;
9821;SDS011;4950;46.042;14.472;2023-06-10T00:08:04;6.72;;;3.67;;
9821;SDS011;4950;46.042;14.472;2023-06-10T00:10:33;10.43;;;3.80;;
9821;SDS011;4950;46.042;14.472;2023-06-10T00:13:00;7.80;;;4.20;;
9821;SDS011;4950;46.042;14.472;2023-06-10T00:15:27;8.43;;;4.20;;
9821;SDS011;4950;46.042;14.472;2023-06-10T00:17:54;6.93;;;4.13;;
9821;SDS011;4950;46.042;14.472;2023-06-10T00:20:21;6.57;;;4.20;;
9821;SDS011;4950;46.042;14.472;2023-06-10T00:22:50;5.10;;;3.47;;
9821;SDS011;4950;46.042;14.472;2023-06-10T00:25:17;6.22;;;3.95;;
9821;SDS011;4950;46.042;14.472;2023-06-10T00:27:44;4.68;;;3.15;;
9821;SDS011;4950;46.042;14.472;2023-06-10T00:30:11;6.93;;;3.55;;
9821;SDS011;4950;46.042;14.472;2023-06-10T00:32:38;6.13;;;2.88;;
9821;SDS011;4950;46.042;14.472;2023-06-10T00:35:05;6.97;;;3.50;;
9821;SDS011;4950;46.042;14.472;2023-06-10T00:37:32;6.43;;;3.30;;
9821;SDS011;4950;46.042;14.472;2023-06-10T00:40:01;7.63;;;3.50;;
9821;SDS011;4950;46.042;14.472;2023-06-10T00:42:28;6.65;;;3.70;;
9821;SDS011;4950;46.042;14.472;2023-06-10T00:44:55;7.57;;;3.67;;
9821;SDS011;4950;46.042;14.472;2023-06-10T00:47:21;5.28;;;3.38;;
9821;SDS011;4950;46.042;14.472;2023-06-10T00:49:49;5.03;;;3.33;;
9821;SDS011;4950;46.042;14.472;2023-06-10T00:52:16;10.00;;;3.95;;
9821;SDS011;4950;46.042;14.472;2023-06-10T00:54:44;6.60;;;3.40;;
9821;SDS011;4950;46.042;14.472;2023-06-10T00:57:13;5.30;;;3.40;;
9821;SDS011;4950;46.042;14.472;2023-06-10T00:59:40;9.32;;;3.50;;
9821;SDS011;4950;46.042;14.472;2023-06-10T01:02:07;6.97;;;3.58;;
9821;SDS011;4950;46.042;14.472;2023-06-10T01:04:34;6.63;;;3.85;;
9821;SDS011;4950;46.042;14.472;2023-06-10T01:07:04;7.13;;;3.60;;
9821;SDS011;4950;46.042;14.472;2023-06-10T01:09:38;4.32;;;3.47;;
9821;SDS011;4950;46.042;14.472;2023-06-10T01:12:14;5.38;;;3.40;;
9821;SDS011;4950;46.042;14.472;2023-06-10T01:14:49;6.75;;;3.38;;
9821;SDS011;4950;46.042;14.472;2023-06-10T01:17:17;6.03;;;3.95;;
9821;SDS011;4950;46.042;14.472;2023-06-10T01:19:44;6.72;;;4.25;;
9821;SDS011;4950;46.042;14.472;2023-06-10T01:22:12;6.10;;;3.88;;
9821;SDS011;4950;46.042;14.472;2023-06-10T01:24:41;7.03;;;4.07;;
9821;SDS011;4950;46.042;14.472;2023-06-10T01:27:09;9.32;;;3.83;;
9821;SDS011;4950;46.042;14.472;2023-06-10T01:29:41;14.90;;;4.57;;
9821;SDS011;4950;46.042;14.472;2023-06-10T01:32:15;5.93;;;3.70;;
9821;SDS011;4950;46.042;14.472;2023-06-10T01:34:44;5.40;;;3.50;;
9821;SDS011;4950;46.042;14.472;2023-06-10T01:37:13;4.63;;;3.40;;
9821;SDS011;4950;46.042;14.472;2023-06-10T01:39:44;6.25;;;3.60;;
9821;SDS011;4950;46.042;14.472;2023-06-10T01:42:12;10.25;;;3.75;;
9821;SDS011;4950;46.042;14.472;2023-06-10T01:44:39;4.95;;;3.40;;
9821;SDS011;4950;46.042;14.472;2023-06-10T01:47:07;5.88;;;3.80;;
9821;SDS011;4950;46.042;14.472;2023-06-10T01:49:33;5.82;;;4.00;;
9821;SDS011;4950;46.042;14.472;2023-06-10T01:52:00;6.50;;;3.55;;
9821;SDS011;4950;46.042;14.472;2023-06-10T01:54:28;5.75;;;3.30;;
9821;SDS011;4950;46.042;14.472;2023-06-10T01:56:55;5.10;;;3.35;;
9821;SDS011;4950;46.042;14.472;2023-06-10T01:59:21;6.00;;;3.28;;
9821;SDS011;4950;46.042;14.472;2023-06-10T02:01:48;5.95;;;3.50;;
9821;SDS011;4950;46.042;14.472;2023-06-10T02:04:15;6.70;;;3.95;;
9821;SDS011;4950;46.042;14.472;2023-06-10T02:06:41;5.95;;;3.25;;
9821;SDS011;4950;46.042;14.472;2023-06-10T02:09:08;5.63;;;3.90;;
9821;SDS011;4950;46.042;14.472;2023-06-10T02:11:36;6.78;;;3.75;;
9821;SDS011;4950;46.042;14.472;2023-06-10T02:14:03;5.18;;;3.60;;
9821;SDS011;4950;46.042;14.472;2023-06-10T02:16:29;7.72;;;3.97;;
9821;SDS011;4950;46.042;14.472;2023-06-10T02:18:56;6.95;;;4.13;;
9821;SDS011;4950;46.042;14.472;2023-06-10T02:21:23;5.50;;;4.00;;
9821;SDS011;4950;46.042;14.472;2023-06-10T02:23:50;6.68;;;3.78;;
9821;SDS011;4950;46.042;14.472;2023-06-10T02:26:16;7.63;;;4.15;;
9821;SDS011;4950;46.042;14.472;2023-06-10T02:28:44;6.22;;;3.53;;
9821;SDS011;4950;46.042;14.472;2023-06-10T02:31:11;4.63;;;3.33;;
9821;SDS011;4950;46.042;14.472;2023-06-10T02:33:38;10.15;;;3.78;;
9821;SDS011;4950;46.042;14.472;2023-06-10T02:36:05;6.82;;;3.72;;
9821;SDS011;4950;46.042;14.472;2023-06-10T02:38:31;8.02;;;3.38;;
9821;SDS011;4950;46.042;14.472;2023-06-10T02:40:58;7.03;;;4.13;;
9821;SDS011;4950;46.042;14.472;2023-06-10T02:43:25;8.90;;;4.63;;
9821;SDS011;4950;46.042;14.472;2023-06-10T02:45:53;7.05;;;4.30;;
9821;SDS011;4950;46.042;14.472;2023-06-10T02:48:19;8.50;;;4.60;;
9821;SDS011;4950;46.042;14.472;2023-06-10T02:50:46;8.05;;;4.38;;
9821;SDS011;4950;46.042;14.472;2023-06-10T02:53:13;6.13;;;4.20;;
9821;SDS011;4950;46.042;14.472;2023-06-10T02:55:40;7.15;;;3.95;;
9821;SDS011;4950;46.042;14.472;2023-06-10T02:58:07;10.27;;;4.80;;
9821;SDS011;4950;46.042;14.472;2023-06-10T03:00:33;7.47;;;4.30;;
9821;SDS011;4950;46.042;14.472;2023-06-10T03:03:04;5.32;;;3.97;;
9821;SDS011;4950;46.042;14.472;2023-06-10T03:05:30;6.13;;;4.53;;
9821;SDS011;4950;46.042;14.472;2023-06-10T03:07:58;10.05;;;5.22;;
9821;SDS011;4950;46.042;14.472;2023-06-10T03:10:25;8.93;;;4.75;;
9821;SDS011;4950;46.042;14.472;2023-06-10T03:12:52;6.63;;;4.10;;
9821;SDS011;4950;46.042;14.472;2023-06-10T03:15:18;8.63;;;4.55;;
9821;SDS011;4950;46.042;14.472;2023-06-10T03:17:45;6.22;;;4.20;;
9821;SDS011;4950;46.042;14.472;2023-06-10T03:20:13;8.30;;;4.35;;
9821;SDS011;4950;46.042;14.472;2023-06-10T03:22:42;8.23;;;4.10;;
9821;SDS011;4950;46.042;14.472;2023-06-10T03:25:08;6.30;;;4.38;;
9821;SDS011;4950;46.042;14.472;2023-06-10T03:27:38;9.27;;;4.97;;
9821;SDS011;4950;46.042;14.472;2023-06-10T03:30:06;6.47;;;4.30;;
9821;SDS011;4950;46.042;14.472;2023-06-10T03:32:33;9.20;;;4.67;;
9821;SDS011;4950;46.042;14.472;2023-06-10T03:35:00;7.50;;;4.57;;
9821;SDS011;4950;46.042;14.472;2023-06-10T03:37:28;7.20;;;4.78;;
9821;SDS011;4950;46.042;14.472;2023-06-10T03:39:55;8.23;;;4.80;;
9821;SDS011;4950;46.042;14.472;2023-06-10T03:42:21;9.52;;;4.45;;
9821;SDS011;4950;46.042;14.472;2023-06-10T03:44:48;7.82;;;4.85;;
9821;SDS011;4950;46.042;14.472;2023-06-10T03:47:14;8.10;;;5.40;;
9821;SDS011;4950;46.042;14.472;2023-06-10T03:49:41;9.02;;;4.25;;
9821;SDS011;4950;46.042;14.472;2023-06-10T03:52:08;6.70;;;4.30;;
9821;SDS011;4950;46.042;14.472;2023-06-10T03:54:36;8.02;;;4.20;;
9821;SDS011;4950;46.042;14.472;2023-06-10T03:57:03;7.22;;;4.72;;
9821;SDS011;4950;46.042;14.472;2023-06-10T03:59:30;6.75;;;4.43;;
9821;SDS011;4950;46.042;14.472;2023-06-10T04:01:57;7.50;;;4.43;;
9821;SDS011;4950;46.042;14.472;2023-06-10T04:04:24;6.88;;;4.40;;
9821;SDS011;4950;46.042;14.472;2023-06-10T04:06:50;8.90;;;4.82;;
9821;SDS011;4950;46.042;14.472;2023-06-10T04:09:18;8.55;;;4.78;;
9821;SDS011;4950;46.042;14.472;2023-06-10T04:11:46;8.18;;;3.97;;
9821;SDS011;4950;46.042;14.472;2023-06-10T04:14:13;7.93;;;4.60;;
9821;SDS011;4950;46.042;14.472;2023-06-10T04:16:40;7.47;;;4.40;;
9821;SDS011;4950;46.042;14.472;2023-06-10T04:19:07;6.07;;;4.45;;
9821;SDS011;4950;46.042;14.472;2023-06-10T04:21:34;7.85;;;4.45;;
9821;SDS011;4950;46.042;14.472;2023-06-10T04:24:01;10.50;;;4.22;;
9821;SDS011;4950;46.042;14.472;2023-06-10T04:26:27;6.13;;;4.35;;
9821;SDS011;4950;46.042;14.472;2023-06-10T04:28:55;8.02;;;4.43;;
9821;SDS011;4950;46.042;14.472;2023-06-10T04:31:22;6.88;;;4.88;;
9821;SDS011;4950;46.042;14.472;2023-06-10T04:33:49;7.15;;;5.00;;
9821;SDS011;4950;46.042;14.472;2023-06-10T04:36:15;9.85;;;5.78;;
9821;SDS011;4950;46.042;14.472;2023-06-10T04:38:42;9.23;;;6.78;;
9821;SDS011;4950;46.042;14.472;2023-06-10T04:41:08;10.82;;;6.40;;
9821;SDS011;4950;46.042;14.472;2023-06-10T04:43:35;12.70;;;7.15;;
9821;SDS011;4950;46.042;14.472;2023-06-10T04:46:03;9.70;;;6.20;;
9821;SDS011;4950;46.042;14.472;2023-06-10T04:48:30;9.38;;;6.63;;
9821;SDS011;4950;46.042;14.472;2023-06-10T04:50:57;7.68;;;5.70;;
9821;SDS011;4950;46.042;14.472;2023-06-10T04:53:25;8.68;;;5.72;;
9821;SDS011;4950;46.042;14.472;2023-06-10T04:55:52;7.53;;;5.68;;
9821;SDS011;4950;46.042;14.472;2023-06-10T04:58:19;8.77;;;5.00;;
9821;SDS011;4950;46.042;14.472;2023-06-10T05:00:45;9.00;;;6.75;;
9821;SDS011;4950;46.042;14.472;2023-06-10T05:03:14;9.50;;;6.45;;
9821;SDS011;4950;46.042;14.472;2023-06-10T05:05:40;7.00;;;4.72;;
9821;SDS011;4950;46.042;14.472;2023-06-10T05:08:07;9.57;;;6.88;;
9821;SDS011;4950;46.042;14.472;2023-06-10T05:10:33;10.18;;;6.82;;
9821;SDS011;4950;46.042;14.472;2023-06-10T05:13:00;9.90;;;6.93;;
9821;SDS011;4950;46.042;14.472;2023-06-10T05:15:28;8.85;;;6.40;;
9821;SDS011;4950;46.042;14.472;2023-06-10T05:17:56;11.30;;;6.28;;
9821;SDS011;4950;46.042;14.472;2023-06-10T05:20:24;9.50;;;6.72;;
9821;SDS011;4950;46.042;14.472;2023-06-10T05:22:51;9.48;;;6.28;;
9821;SDS011;4950;46.042;14.472;2023-06-10T05:25:18;8.02;;;5.65;;
9821;SDS011;4950;46.042;14.472;2023-06-10T05:27:44;7.55;;;5.45;;
9821;SDS011;4950;46.042;14.472;2023-06-10T05:30:11;8.70;;;5.30;;
9821;SDS011;4950;46.042;14.472;2023-06-10T05:32:38;12.05;;;6.22;;
9821;SDS011;4950;46.042;14.472;2023-06-10T05:35:05;7.60;;;5.80;;
9821;SDS011;4950;46.042;14.472;2023-06-10T05:37:34;9.60;;;6.38;;
9821;SDS011;4950;46.042;14.472;2023-06-10T05:40:02;9.63;;;6.75;;
9821;SDS011;4950;46.042;14.472;2023-06-10T05:42:30;7.60;;;5.35;;
9821;SDS011;4950;46.042;14.472;2023-06-10T05:44:56;6.93;;;5.30;;
9821;SDS011;4950;46.042;14.472;2023-06-10T05:47:23;8.10;;;5.20;;
9821;SDS011;4950;46.042;14.472;2023-06-10T05:49:50;6.88;;;5.13;;
9821;SDS011;4950;46.042;14.472;2023-06-10T05:52:17;7.70;;;5.78;;
9821;SDS011;4950;46.042;14.472;2023-06-10T05:54:45;11.40;;;6.60;;
9821;SDS011;4950;46.042;14.472;2023-06-10T05:57:11;11.70;;;5.85;;
9821;SDS011;4950;46.042;14.472;2023-06-10T05:59:38;9.20;;;5.13;;
9821;SDS011;4950;46.042;14.472;2023-06-10T06:02:05;7.85;;;5.68;;
9821;SDS011;4950;46.042;14.472;2023-06-10T06:04:32;10.35;;;5.50;;
9821;SDS011;4950;46.042;14.472;2023-06-10T06:06:58;8.23;;;5.68;;
9821;SDS011;4950;46.042;14.472;2023-06-10T06:09:25;8.85;;;5.47;;
9821;SDS011;4950;46.042;14.472;2023-06-10T06:11:53;8.40;;;6.05;;
9821;SDS011;4950;46.042;14.472;2023-06-10T06:14:20;10.20;;;6.15;;
9821;SDS011;4950;46.042;14.472;2023-06-10T06:16:46;9.07;;;6.43;;
9821;SDS011;4950;46.042;14.472;2023-06-10T06:19:13;9.98;;;6.75;;
9821;SDS011;4950;46.042;14.472;2023-06-10T06:21:40;10.77;;;6.05;;
9821;SDS011;4950;46.042;14.472;2023-06-10T06:24:07;8.85;;;5.53;;
9821;SDS011;4950;46.042;14.472;2023-06-10T06:26:34;7.78;;;5.22;;
9821;SDS011;4950;46.042;14.472;2023-06-10T06:29:02;9.73;;;5.68;;
9821;SDS011;4950;46.042;14.472;2023-06-10T06:31:29;9.03;;;5.97;;
9821;SDS011;4950;46.042;14.472;2023-06-10T06:33:56;10.80;;;6.00;;
9821;SDS011;4950;46.042;14.472;2023-06-10T06:36:22;9.30;;;5.50;;
9821;SDS011;4950;46.042;14.472;2023-06-10T06:38:49;13.98;;;6.07;;
9821;SDS011;4950;46.042;14.472;2023-06-10T06:41:15;9.50;;;6.68;;
9821;SDS011;4950;46.042;14.472;2023-06-10T06:43:42;9.25;;;6.13;;
9821;SDS011;4950;46.042;14.472;2023-06-10T06:46:10;8.65;;;5.55;;
9821;SDS011;4950;46.042;14.472;2023-06-10T06:48:37;7.97;;;6.03;;
9821;SDS011;4950;46.042;14.472;2023-06-10T06:51:04;11.00;;;6.80;;
9821;SDS011;4950;46.042;14.472;2023-06-10T06:53:31;10.95;;;6.72;;
9821;SDS011;4950;46.042;14.472;2023-06-10T06:55:58;9.43;;;6.00;;
9821;SDS011;4950;46.042;14.472;2023-06-10T06:58:25;8.05;;;5.20;;
9821;SDS011;4950;46.042;14.472;2023-06-10T07:00:51;9.70;;;6.88;;
9821;SDS011;4950;46.042;14.472;2023-06-10T07:03:19;9.70;;;5.60;;
9821;SDS011;4950;46.042;14.472;2023-06-10T07:05:46;12.48;;;5.90;;
9821;SDS011;4950;46.042;14.472;2023-06-10T07:08:13;7.65;;;5.70;;
9821;SDS011;4950;46.042;14.472;2023-06-10T07:10:39;8.93;;;5.57;;
9821;SDS011;4950;46.042;14.472;2023-06-10T07:13:06;10.15;;;6.15;;
9821;SDS011;4950;46.042;14.472;2023-06-10T07:15:33;9.52;;;5.50;;
9821;SDS011;4950;46.042;14.472;2023-06-10T07:17:59;9.00;;;5.28;;
9821;SDS011;4950;46.042;14.472;2023-06-10T07:20:28;10.30;;;5.15;;
9821;SDS011;4950;46.042;14.472;2023-06-10T07:22:54;7.18;;;5.65;;
9821;SDS011;4950;46.042;14.472;2023-06-10T07:25:21;9.00;;;6.35;;
9821;SDS011;4950;46.042;14.472;2023-06-10T07:27:47;8.52;;;6.05;;
9821;SDS011;4950;46.042;14.472;2023-06-10T07:30:14;8.98;;;5.88;;
9821;SDS011;4950;46.042;14.472;2023-06-10T07:32:41;8.77;;;6.55;;
9821;SDS011;4950;46.042;14.472;2023-06-10T07:35:08;7.03;;;4.90;;
9821;SDS011;4950;46.042;14.472;2023-06-10T07:37:37;7.57;;;4.78;;
9821;SDS011;4950;46.042;14.472;2023-06-10T07:40:05;8.20;;;5.27;;
9821;SDS011;4950;46.042;14.472;2023-06-10T07:42:33;8.27;;;5.07;;
9821;SDS011;4950;46.042;14.472;2023-06-10T07:45:02;6.80;;;4.78;;
9821;SDS011;4950;46.042;14.472;2023-06-10T07:47:29;11.35;;;6.03;;
9821;SDS011;4950;46.042;14.472;2023-06-10T07:49:55;8.63;;;5.32;;
9821;SDS011;4950;46.042;14.472;2023-06-10T07:52:22;8.52;;;5.30;;
9821;SDS011;4950;46.042;14.472;2023-06-10T07:54:50;7.07;;;4.75;;
9821;SDS011;4950;46.042;14.472;2023-06-10T07:57:16;7.25;;;5.30;;
9821;SDS011;4950;46.042;14.472;2023-06-10T07:59:43;8.30;;;5.43;;
9821;SDS011;4950;46.042;14.472;2023-06-10T08:02:10;7.40;;;4.88;;
9821;SDS011;4950;46.042;14.472;2023-06-10T08:04:37;7.18;;;4.97;;
9821;SDS011;4950;46.042;14.472;2023-06-10T08:07:04;11.40;;;4.95;;
9821;SDS011;4950;46.042;14.472;2023-06-10T08:09:31;8.55;;;5.30;;
9821;SDS011;4950;46.042;14.472;2023-06-10T08:11:59;6.97;;;4.65;;
9821;SDS011;4950;46.042;14.472;2023-06-10T08:14:26;7.55;;;5.22;;
9821;SDS011;4950;46.042;14.472;2023-06-10T08:16:53;9.30;;;4.88;;
9821;SDS011;4950;46.042;14.472;2023-06-10T08:19:19;11.85;;;5.60;;
9821;SDS011;4950;46.042;14.472;2023-06-10T08:21:46;8.95;;;5.20;;
9821;SDS011;4950;46.042;14.472;2023-06-10T08:24:12;7.90;;;4.85;;
9821;SDS011;4950;46.042;14.472;2023-06-10T08:26:41;10.65;;;6.05;;
9821;SDS011;4950;46.042;14.472;2023-06-10T08:29:11;11.30;;;6.88;;
9821;SDS011;4950;46.042;14.472;2023-06-10T08:31:40;11.50;;;6.55;;
9821;SDS011;4950;46.042;14.472;2023-06-10T08:34:07;13.60;;;7.07;;
9821;SDS011;4950;46.042;14.472;2023-06-10T08:36:34;10.57;;;6.82;;
9821;SDS011;4950;46.042;14.472;2023-06-10T08:39:02;8.48;;;5.65;;
9821;SDS011;4950;46.042;14.472;2023-06-10T08:41:28;8.60;;;5.65;;
9821;SDS011;4950;46.042;14.472;2023-06-10T08:44:03;8.85;;;5.45;;
9821;SDS011;4950;46.042;14.472;2023-06-10T08:46:35;11.30;;;6.88;;
9821;SDS011;4950;46.042;14.472;2023-06-10T08:49:03;12.55;;;7.40;;
9821;SDS011;4950;46.042;14.472;2023-06-10T08:51:32;10.25;;;6.07;;
9821;SDS011;4950;46.042;14.472;2023-06-10T08:54:01;8.65;;;5.95;;
9821;SDS011;4950;46.042;14.472;2023-06-10T08:56:31;9.15;;;5.80;;
9821;SDS011;4950;46.042;14.472;2023-06-10T08:59:03;11.57;;;6.30;;
9821;SDS011;4950;46.042;14.472;2023-06-10T09:01:29;9.13;;;6.40;;
9821;SDS011;4950;46.042;14.472;2023-06-10T09:03:58;8.93;;;5.88;;
9821;SDS011;4950;46.042;14.472;2023-06-10T09:06:25;9.85;;;5.82;;
9821;SDS011;4950;46.042;14.472;2023-06-10T09:08:52;11.50;;;6.30;;
9821;SDS011;4950;46.042;14.472;2023-06-10T09:11:19;7.72;;;4.50;;
9821;SDS011;4950;46.042;14.472;2023-06-10T09:13:46;6.18;;;4.63;;
9821;SDS011;4950;46.042;14.472;2023-06-10T09:16:12;7.10;;;4.57;;
9821;SDS011;4950;46.042;14.472;2023-06-10T09:18:40;8.32;;;5.05;;
9821;SDS011;4950;46.042;14.472;2023-06-10T09:21:08;7.30;;;4.90;;
9821;SDS011;4950;46.042;14.472;2023-06-10T09:23:35;7.10;;;4.20;;
9821;SDS011;4950;46.042;14.472;2023-06-10T09:26:08;8.70;;;5.30;;
9821;SDS011;4950;46.042;14.472;2023-06-10T09:28:35;6.60;;;4.68;;
9821;SDS011;4950;46.042;14.472;2023-06-10T09:31:02;7.53;;;4.60;;
9821;SDS011;4950;46.042;14.472;2023-06-10T09:33:30;9.30;;;4.93;;
9821;SDS011;4950;46.042;14.472;2023-06-10T09:35:57;6.28;;;4.43;;
9821;SDS011;4950;46.042;14.472;2023-06-10T09:38:30;6.57;;;4.50;;
9821;SDS011;4950;46.042;14.472;2023-06-10T09:40:58;6.50;;;4.40;;
9821;SDS011;4950;46.042;14.472;2023-06-10T09:43:37;6.60;;;4.60;;
9821;SDS011;4950;46.042;14.472;2023-06-10T09:46:05;6.60;;;4.95;;
9821;SDS011;4950;46.042;14.472;2023-06-10T09:48:34;6.60;;;4.75;;
9821;SDS011;4950;46.042;14.472;2023-06-10T09:51:01;8.77;;;5.65;;
9821;SDS011;4950;46.042;14.472;2023-06-10T09:53:27;8.20;;;5.30;;
9821;SDS011;4950;46.042;14.472;2023-06-10T09:55:57;8.20;;;5.40;;
9821;SDS011;4950;46.042;14.472;2023-06-10T09:58:33;10.00;;;5.53;;
9821;SDS011;4950;46.042;14.472;2023-06-10T10:01:03;9.70;;;5.25;;
9821;SDS011;4950;46.042;14.472;2023-06-10T10:03:31;6.65;;;4.57;;
9821;SDS011;4950;46.042;14.472;2023-06-10T10:05:58;7.25;;;5.10;;
9821;SDS011;4950;46.042;14.472;2023-06-10T10:08:25;9.52;;;5.32;;
9821;SDS011;4950;46.042;14.472;2023-06-10T10:10:52;12.43;;;4.97;;
9821;SDS011;4950;46.042;14.472;2023-06-10T10:13:20;6.57;;;4.82;;
9821;SDS011;4950;46.042;14.472;2023-06-10T10:15:47;12.23;;;4.78;;
9821;SDS011;4950;46.042;14.472;2023-06-10T10:18:14;5.70;;;4.22;;
9821;SDS011;4950;46.042;14.472;2023-06-10T10:20:49;6.55;;;4.03;;
9821;SDS011;4950;46.042;14.472;2023-06-10T10:23:18;6.85;;;4.80;;
9821;SDS011;4950;46.042;14.472;2023-06-10T10:25:51;6.72;;;4.50;;
9821;SDS011;4950;46.042;14.472;2023-06-10T10:30:49;7.65;;;4.80;;
9821;SDS011;4950;46.042;14.472;2023-06-10T10:33:19;10.65;;;4.35;;
9821;SDS011;4950;46.042;14.472;2023-06-10T10:35:48;5.80;;;3.85;;
9821;SDS011;4950;46.042;14.472;2023-06-10T10:38:16;5.63;;;3.85;;
9821;SDS011;4950;46.042;14.472;2023-06-10T10:40:43;5.65;;;3.95;;
9821;SDS011;4950;46.042;14.472;2023-06-10T10:43:11;6.20;;;3.20;;
9821;SDS011;4950;46.042;14.472;2023-06-10T10:45:40;7.78;;;4.10;;
9821;SDS011;4950;46.042;14.472;2023-06-10T10:48:08;4.32;;;3.28;;
9821;SDS011;4950;46.042;14.472;2023-06-10T10:50:37;4.88;;;3.72;;
9821;SDS011;4950;46.042;14.472;2023-06-10T10:53:05;7.22;;;3.90;;
9821;SDS011;4950;46.042;14.472;2023-06-10T10:55:32;4.18;;;3.22;;
9821;SDS011;4950;46.042;14.472;2023-06-10T10:58:02;5.05;;;3.42;;
9821;SDS011;4950;46.042;14.472;2023-06-10T11:00:32;7.90;;;3.65;;
9821;SDS011;4950;46.042;14.472;2023-06-10T11:03:04;5.53;;;3.58;;
9821;SDS011;4950;46.042;14.472;2023-06-10T11:05:36;5.80;;;3.50;;
9821;SDS011;4950;46.042;14.472;2023-06-10T11:08:04;5.43;;;3.42;;
9821;SDS011;4950;46.042;14.472;2023-06-10T11:10:31;6.78;;;3.67;;
9821;SDS011;4950;46.042;14.472;2023-06-10T11:12:59;4.57;;;3.53;;
9821;SDS011;4950;46.042;14.472;2023-06-10T11:15:26;5.88;;;3.67;;
9821;SDS011;4950;46.042;14.472;2023-06-10T11:18:08;7.07;;;3.90;;
9821;SDS011;4950;46.042;14.472;2023-06-10T11:20:51;5.50;;;3.58;;
9821;SDS011;4950;46.042;14.472;2023-06-10T11:23:26;5.53;;;3.58;;
9821;SDS011;4950;46.042;14.472;2023-06-10T11:26:10;6.40;;;4.43;;
9821;SDS011;4950;46.042;14.472;2023-06-10T11:28:40;5.32;;;3.47;;
9821;SDS011;4950;46.042;14.472;2023-06-10T11:31:08;6.70;;;3.80;;
9821;SDS011;4950;46.042;14.472;2023-06-10T11:33:42;5.88;;;3.63;;
9821;SDS011;4950;46.042;14.472;2023-06-10T11:36:09;4.82;;;3.35;;
9821;SDS011;4950;46.042;14.472;2023-06-10T11:38:35;4.88;;;3.42;;
9821;SDS011;4950;46.042;14.472;2023-06-10T11:41:03;5.03;;;3.63;;
9821;SDS011;4950;46.042;14.472;2023-06-10T11:43:29;5.90;;;3.58;;
9821;SDS011;4950;46.042;14.472;2023-06-10T11:45:56;5.43;;;3.92;;
9821;SDS011;4950;46.042;14.472;2023-06-10T11:48:23;5.45;;;3.50;;
9821;SDS011;4950;46.042;14.472;2023-06-10T11:50:52;5.93;;;3.88;;
9821;SDS011;4950;46.042;14.472;2023-06-10T11:53:18;4.22;;;3.28;;
9821;SDS011;4950;46.042;14.472;2023-06-10T11:55:45;6.35;;;3.60;;
9821;SDS011;4950;46.042;14.472;2023-06-10T11:58:13;5.65;;;3.35;;
9821;SDS011;4950;46.042;14.472;2023-06-10T12:00:44;5.68;;;3.60;;
9821;SDS011;4950;46.042;14.472;2023-06-10T12:03:14;5.63;;;4.03;;
9821;SDS011;4950;46.042;14.472;2023-06-10T12:05:46;6.20;;;3.65;;
9821;SDS011;4950;46.042;14.472;2023-06-10T12:08:24;8.63;;;4.50;;
9821;SDS011;4950;46.042;14.472;2023-06-10T12:10:51;7.10;;;4.30;;
9821;SDS011;4950;46.042;14.472;2023-06-10T12:13:18;6.72;;;4.07;;
9821;SDS011;4950;46.042;14.472;2023-06-10T12:15:45;6.05;;;4.15;;
9821;SDS011;4950;46.042;14.472;2023-06-10T12:18:15;6.55;;;4.40;;
9821;SDS011;4950;46.042;14.472;2023-06-10T12:20:42;6.22;;;3.70;;
9821;SDS011;4950;46.042;14.472;2023-06-10T12:23:11;5.32;;;3.95;;
9821;SDS011;4950;46.042;14.472;2023-06-10T12:25:38;7.13;;;3.95;;
9821;SDS011;4950;46.042;14.472;2023-06-10T12:28:09;5.30;;;3.85;;
9821;SDS011;4950;46.042;14.472;2023-06-10T12:30:36;4.78;;;3.53;;
9821;SDS011;4950;46.042;14.472;2023-06-10T12:33:03;5.70;;;3.78;;
9821;SDS011;4950;46.042;14.472;2023-06-10T12:35:29;5.03;;;3.80;;
9821;SDS011;4950;46.042;14.472;2023-06-10T12:37:56;4.85;;;3.60;;
9821;SDS011;4950;46.042;14.472;2023-06-10T12:40:29;5.28;;;3.85;;
9821;SDS011;4950;46.042;14.472;2023-06-10T12:42:57;9.93;;;4.75;;
9821;SDS011;4950;46.042;14.472;2023-06-10T12:45:27;6.70;;;4.53;;
9821;SDS011;4950;46.042;14.472;2023-06-10T12:48:04;7.97;;;4.55;;
9821;SDS011;4950;46.042;14.472;2023-06-10T12:50:32;4.85;;;3.67;;
9821;SDS011;4950;46.042;14.472;2023-06-10T12:52:59;6.07;;;4.35;;
9821;SDS011;4950;46.042;14.472;2023-06-10T12:55:25;7.28;;;4.38;;
9821;SDS011;4950;46.042;14.472;2023-06-10T12:57:54;6.45;;;4.00;;
9821;SDS011;4950;46.042;14.472;2023-06-10T13:00:21;5.82;;;4.25;;
9821;SDS011;4950;46.042;14.472;2023-06-10T13:02:50;7.03;;;4.25;;
9821;SDS011;4950;46.042;14.472;2023-06-10T13:05:18;7.53;;;4.05;;
9821;SDS011;4950;46.042;14.472;2023-06-10T13:07:45;6.85;;;4.55;;
9821;SDS011;4950;46.042;14.472;2023-06-10T13:10:12;6.55;;;4.43;;
9821;SDS011;4950;46.042;14.472;2023-06-10T13:12:39;5.97;;;4.30;;
9821;SDS011;4950;46.042;14.472;2023-06-10T13:15:08;6.10;;;4.43;;
9821;SDS011;4950;46.042;14.472;2023-06-10T13:17:35;6.32;;;4.65;;
9821;SDS011;4950;46.042;14.472;2023-06-10T13:20:02;5.90;;;4.10;;
9821;SDS011;4950;46.042;14.472;2023-06-10T13:22:29;7.15;;;4.10;;
9821;SDS011;4950;46.042;14.472;2023-06-10T13:24:57;6.05;;;4.35;;
9821;SDS011;4950;46.042;14.472;2023-06-10T13:27:24;5.93;;;3.70;;
9821;SDS011;4950;46.042;14.472;2023-06-10T13:29:51;7.82;;;4.70;;
9821;SDS011;4950;46.042;14.472;2023-06-10T13:32:18;6.63;;;4.00;;
9821;SDS011;4950;46.042;14.472;2023-06-10T13:34:45;5.93;;;4.30;;
9821;SDS011;4950;46.042;14.472;2023-06-10T13:37:12;7.72;;;4.85;;
9821;SDS011;4950;46.042;14.472;2023-06-10T13:39:39;6.72;;;4.80;;
9821;SDS011;4950;46.042;14.472;2023-06-10T13:42:06;7.60;;;4.22;;
9821;SDS011;4950;46.042;14.472;2023-06-10T13:44:34;6.57;;;4.50;;
9821;SDS011;4950;46.042;14.472;2023-06-10T13:47:01;4.90;;;3.90;;
9821;SDS011;4950;46.042;14.472;2023-06-10T13:49:29;5.90;;;4.10;;
9821;SDS011;4950;46.042;14.472;2023-06-10T13:51:56;6.70;;;4.60;;
9821;SDS011;4950;46.042;14.472;2023-06-10T13:54:23;7.55;;;4.57;;
9821;SDS011;4950;46.042;14.472;2023-06-10T13:56:49;6.78;;;4.00;;
9821;SDS011;4950;46.042;14.472;2023-06-10T13:59:16;6.30;;;4.10;;
9821;SDS011;4950;46.042;14.472;2023-06-10T14:01:44;5.72;;;4.25;;
9821;SDS011;4950;46.042;14.472;2023-06-10T14:04:11;4.97;;;4.05;;
9821;SDS011;4950;46.042;14.472;2023-06-10T14:06:39;6.38;;;4.25;;
9821;SDS011;4950;46.042;14.472;2023-06-10T14:09:06;5.03;;;3.85;;
9821;SDS011;4950;46.042;14.472;2023-06-10T14:11:32;5.75;;;4.07;;
9821;SDS011;4950;46.042;14.472;2023-06-10T14:13:59;5.88;;;4.40;;
9821;SDS011;4950;46.042;14.472;2023-06-10T14:16:26;6.22;;;4.47;;
9821;SDS011;4950;46.042;14.472;2023-06-10T14:18:53;7.45;;;4.30;;
9821;SDS011;4950;46.042;14.472;2023-06-10T14:21:20;6.40;;;4.53;;
9821;SDS011;4950;46.042;14.472;2023-06-10T14:23:48;7.57;;;4.45;;
9821;SDS011;4950;46.042;14.472;2023-06-10T14:26:16;6.80;;;4.30;;
9821;SDS011;4950;46.042;14.472;2023-06-10T14:28:43;5.90;;;4.07;;
9821;SDS011;4950;46.042;14.472;2023-06-10T14:31:10;7.57;;;4.10;;
9821;SDS011;4950;46.042;14.472;2023-06-10T14:33:36;4.95;;;3.65;;
9821;SDS011;4950;46.042;14.472;2023-06-10T14:36:04;4.70;;;3.50;;
9821;SDS011;4950;46.042;14.472;2023-06-10T14:38:31;5.22;;;3.65;;
9821;SDS011;4950;46.042;14.472;2023-06-10T14:40:59;5.13;;;3.72;;
9821;SDS011;4950;46.042;14.472;2023-06-10T14:43:26;5.80;;;3.83;;
9821;SDS011;4950;46.042;14.472;2023-06-10T14:45:52;6.85;;;3.83;;
9821;SDS011;4950;46.042;14.472;2023-06-10T14:48:21;5.72;;;3.88;;
9821;SDS011;4950;46.042;14.472;2023-06-10T14:50:47;5.35;;;3.78;;
9821;SDS011;4950;46.042;14.472;2023-06-10T14:53:20;5.78;;;3.88;;
9821;SDS011;4950;46.042;14.472;2023-06-10T14:55:47;5.00;;;3.58;;
9821;SDS011;4950;46.042;14.472;2023-06-10T14:58:14;7.20;;;3.60;;
9821;SDS011;4950;46.042;14.472;2023-06-10T15:00:41;5.95;;;4.15;;
9821;SDS011;4950;46.042;14.472;2023-06-10T15:03:08;7.72;;;3.90;;
9821;SDS011;4950;46.042;14.472;2023-06-10T15:05:35;4.20;;;3.40;;